Sedro Woolley, Washington
Current Conditions -  °F | °C
As of 6:15 AM on Monday 26 Jan 2015 (Local Time) from KBVS Reporting Station
Overcast Overcast  
Wind Chill:   Ceiling: 100
Heat Index:   Visibility: 0mi
Dew Point:   Wind: 5mph
Humidity: 100%   Direction: 210°SSW
Pressure: 29.96"   Gusts: NA
Location:  48.54°N, 122.19°W
Report Text: KBVS 261415Z AUTO 21004KT M1/4SM OVC001 05/05 A2996 RMK A01 P000
Loading
Personal Weather Stations






























Interactive Weather Map New forecast layout! Learn more

10-Day Weather Forecast

Advertisements
Track Severe Weather on mobile